sensor_id;sensor_type;location;lat;lon;timestamp;pressure;altitude;pressure_sealevel;temperature;humidity
13027;BME280;6580;42.680;23.324;2023-09-30T00:00:32;95598.34;;;17.58;81.20
13027;BME280;6580;42.680;23.324;2023-09-30T00:03:25;95672.84;;;18.07;80.40
13027;BME280;6580;42.680;23.324;2023-09-30T00:06:11;95669.66;;;17.97;82.28
13027;BME280;6580;42.680;23.324;2023-09-30T00:08:56;95666.72;;;18.13;82.86
13027;BME280;6580;42.680;23.324;2023-09-30T00:11:42;95670.47;;;17.98;83.15
13027;BME280;6580;42.680;23.324;2023-09-30T00:14:27;95666.44;;;18.08;82.74
13027;BME280;6580;42.680;23.324;2023-09-30T00:17:15;95667.59;;;18.20;81.09
13027;BME280;6580;42.680;23.324;2023-09-30T00:20:00;95668.44;;;18.21;82.69
13027;BME280;6580;42.680;23.324;2023-09-30T00:22:48;95663.75;;;18.08;83.12
13027;BME280;6580;42.680;23.324;2023-09-30T00:25:34;95657.66;;;18.21;84.40
13027;BME280;6580;42.680;23.324;2023-09-30T00:28:20;95654.41;;;18.25;83.98
13027;BME280;6580;42.680;23.324;2023-09-30T00:31:07;95652.63;;;18.18;83.54
13027;BME280;6580;42.680;23.324;2023-09-30T00:33:58;95658.72;;;18.05;83.84
13027;BME280;6580;42.680;23.324;2023-09-30T00:36:44;95662.06;;;18.07;84.28
13027;BME280;6580;42.680;23.324;2023-09-30T00:39:32;95661.81;;;18.02;84.63
13027;BME280;6580;42.680;23.324;2023-09-30T00:42:18;95659.44;;;17.93;85.46
13027;BME280;6580;42.680;23.324;2023-09-30T00:45:05;95661.19;;;18.00;85.83
13027;BME280;6580;42.680;23.324;2023-09-30T00:47:51;95666.72;;;18.13;85.40
13027;BME280;6580;42.680;23.324;2023-09-30T00:50:38;95659.38;;;18.07;85.12
13027;BME280;6580;42.680;23.324;2023-09-30T00:53:25;95656.50;;;18.09;84.88
13027;BME280;6580;42.680;23.324;2023-09-30T00:56:11;95653.94;;;18.22;84.20
13027;BME280;6580;42.680;23.324;2023-09-30T00:58:56;95658.66;;;18.20;83.59
13027;BME280;6580;42.680;23.324;2023-09-30T01:01:45;95650.69;;;18.12;85.30
13027;BME280;6580;42.680;23.324;2023-09-30T01:04:31;95647.94;;;18.05;85.96
13027;BME280;6580;42.680;23.324;2023-09-30T01:07:21;95648.47;;;18.15;84.63
13027;BME280;6580;42.680;23.324;2023-09-30T01:10:08;95649.88;;;17.90;87.51
13027;BME280;6580;42.680;23.324;2023-09-30T01:12:54;95651.13;;;18.09;84.86
13027;BME280;6580;42.680;23.324;2023-09-30T01:15:40;95647.31;;;18.03;84.35
13027;BME280;6580;42.680;23.324;2023-09-30T01:18:25;95650.66;;;18.26;83.48
13027;BME280;6580;42.680;23.324;2023-09-30T01:21:11;95639.47;;;18.08;84.28
13027;BME280;6580;42.680;23.324;2023-09-30T01:23:58;95642.81;;;18.10;85.31
13027;BME280;6580;42.680;23.324;2023-09-30T01:26:43;95645.53;;;18.10;85.94
13027;BME280;6580;42.680;23.324;2023-09-30T01:29:29;95646.69;;;18.01;88.68
13027;BME280;6580;42.680;23.324;2023-09-30T01:32:15;95655.06;;;18.13;88.53
13027;BME280;6580;42.680;23.324;2023-09-30T01:35:01;95652.97;;;18.08;88.83
13027;BME280;6580;42.680;23.324;2023-09-30T01:37:47;95648.41;;;18.09;88.31
13027;BME280;6580;42.680;23.324;2023-09-30T01:40:34;95647.81;;;18.28;87.54
13027;BME280;6580;42.680;23.324;2023-09-30T01:43:22;95639.56;;;18.36;87.13
13027;BME280;6580;42.680;23.324;2023-09-30T01:46:08;95648.09;;;18.18;88.34
13027;BME280;6580;42.680;23.324;2023-09-30T01:48:53;95643.88;;;18.30;87.74
13027;BME280;6580;42.680;23.324;2023-09-30T01:51:42;95647.44;;;18.16;88.32
13027;BME280;6580;42.680;23.324;2023-09-30T01:54:28;95635.72;;;18.03;86.26
13027;BME280;6580;42.680;23.324;2023-09-30T01:57:15;95638.19;;;18.04;88.41
13027;BME280;6580;42.680;23.324;2023-09-30T02:00:01;95643.84;;;18.09;88.21
13027;BME280;6580;42.680;23.324;2023-09-30T02:02:47;95640.06;;;18.04;88.55
13027;BME280;6580;42.680;23.324;2023-09-30T02:05:33;95646.06;;;17.99;88.33
13027;BME280;6580;42.680;23.324;2023-09-30T02:08:21;95649.63;;;18.06;88.32
13027;BME280;6580;42.680;23.324;2023-09-30T02:11:07;95638.78;;;18.00;86.86
13027;BME280;6580;42.680;23.324;2023-09-30T02:13:56;95639.25;;;17.82;89.02
13027;BME280;6580;42.680;23.324;2023-09-30T02:16:41;95639.16;;;17.97;87.91
13027;BME280;6580;42.680;23.324;2023-09-30T02:19:27;95635.31;;;18.06;86.33
13027;BME280;6580;42.680;23.324;2023-09-30T02:22:15;95645.25;;;17.84;87.68
13027;BME280;6580;42.680;23.324;2023-09-30T02:25:01;95640.38;;;17.73;88.87
13027;BME280;6580;42.680;23.324;2023-09-30T02:27:51;95644.94;;;17.73;88.85
13027;BME280;6580;42.680;23.324;2023-09-30T02:30:39;95655.44;;;17.68;89.76
13027;BME280;6580;42.680;23.324;2023-09-30T02:33:24;95651.75;;;17.54;88.53
13027;BME280;6580;42.680;23.324;2023-09-30T02:36:10;95636.41;;;17.34;90.28
13027;BME280;6580;42.680;23.324;2023-09-30T02:39:00;95643.88;;;17.53;88.41
13027;BME280;6580;42.680;23.324;2023-09-30T02:41:46;95646.59;;;17.38;88.76
13027;BME280;6580;42.680;23.324;2023-09-30T02:44:34;95640.56;;;17.36;88.50
13027;BME280;6580;42.680;23.324;2023-09-30T02:47:21;95651.72;;;17.19;89.18
13027;BME280;6580;42.680;23.324;2023-09-30T02:50:08;95641.88;;;17.12;91.13
13027;BME280;6580;42.680;23.324;2023-09-30T02:52:55;95638.56;;;16.95;91.23
13027;BME280;6580;42.680;23.324;2023-09-30T02:55:41;95645.59;;;17.11;89.77
13027;BME280;6580;42.680;23.324;2023-09-30T02:58:27;95645.31;;;16.77;93.19
13027;BME280;6580;42.680;23.324;2023-09-30T03:01:14;95639.94;;;16.77;93.37
13027;BME280;6580;42.680;23.324;2023-09-30T03:04:05;95650.78;;;16.98;91.29
13027;BME280;6580;42.680;23.324;2023-09-30T03:06:52;95650.91;;;16.90;92.69
13027;BME280;6580;42.680;23.324;2023-09-30T03:09:42;95645.59;;;16.82;92.64
13027;BME280;6580;42.680;23.324;2023-09-30T03:12:28;95653.03;;;16.80;93.60
13027;BME280;6580;42.680;23.324;2023-09-30T03:15:16;95643.19;;;16.58;94.97
13027;BME280;6580;42.680;23.324;2023-09-30T03:18:03;95651.44;;;16.56;95.58
13027;BME280;6580;42.680;23.324;2023-09-30T03:20:50;95649.84;;;16.62;95.49
13027;BME280;6580;42.680;23.324;2023-09-30T03:23:40;95653.66;;;16.53;95.65
13027;BME280;6580;42.680;23.324;2023-09-30T03:26:28;95652.19;;;16.65;94.36
13027;BME280;6580;42.680;23.324;2023-09-30T03:29:13;95648.34;;;16.45;94.80
13027;BME280;6580;42.680;23.324;2023-09-30T03:31:59;95652.09;;;16.58;92.95
13027;BME280;6580;42.680;23.324;2023-09-30T03:34:44;95649.50;;;16.65;92.54
13027;BME280;6580;42.680;23.324;2023-09-30T03:37:32;95646.31;;;16.47;94.42
13027;BME280;6580;42.680;23.324;2023-09-30T03:40:19;95643.63;;;16.47;93.90
13027;BME280;6580;42.680;23.324;2023-09-30T03:43:11;95652.91;;;16.44;94.34
13027;BME280;6580;42.680;23.324;2023-09-30T03:45:58;95647.53;;;16.44;96.79
13027;BME280;6580;42.680;23.324;2023-09-30T03:48:44;95647.41;;;16.38;97.02
13027;BME280;6580;42.680;23.324;2023-09-30T03:51:31;95655.50;;;16.16;99.33
13027;BME280;6580;42.680;23.324;2023-09-30T03:54:18;95643.56;;;16.18;98.89
13027;BME280;6580;42.680;23.324;2023-09-30T03:57:04;95655.75;;;16.06;100.00
13027;BME280;6580;42.680;23.324;2023-09-30T03:59:49;95645.66;;;16.08;100.00
13027;BME280;6580;42.680;23.324;2023-09-30T04:02:35;95652.16;;;16.36;99.51
13027;BME280;6580;42.680;23.324;2023-09-30T04:05:21;95662.94;;;16.28;99.02
13027;BME280;6580;42.680;23.324;2023-09-30T04:08:10;95651.88;;;16.09;99.65
13027;BME280;6580;42.680;23.324;2023-09-30T04:10:58;95663.09;;;16.12;97.76
13027;BME280;6580;42.680;23.324;2023-09-30T04:13:44;95667.00;;;16.24;95.12
13027;BME280;6580;42.680;23.324;2023-09-30T04:16:31;95660.34;;;15.98;95.75
13027;BME280;6580;42.680;23.324;2023-09-30T04:19:16;95661.97;;;16.21;94.00
13027;BME280;6580;42.680;23.324;2023-09-30T04:22:02;95663.56;;;16.16;92.43
13027;BME280;6580;42.680;23.324;2023-09-30T04:24:48;95670.84;;;16.07;93.56
13027;BME280;6580;42.680;23.324;2023-09-30T04:27:37;95667.50;;;16.05;92.91
13027;BME280;6580;42.680;23.324;2023-09-30T04:30:23;95673.84;;;15.90;92.40
13027;BME280;6580;42.680;23.324;2023-09-30T04:33:09;95674.91;;;16.03;91.08
13027;BME280;6580;42.680;23.324;2023-09-30T04:35:56;95676.09;;;16.01;90.42
13027;BME280;6580;42.680;23.324;2023-09-30T04:38:42;95679.22;;;16.12;88.75
13027;BME280;6580;42.680;23.324;2023-09-30T04:41:28;95678.59;;;16.02;88.44
13027;BME280;6580;42.680;23.324;2023-09-30T04:44:17;95690.09;;;15.96;89.17
13027;BME280;6580;42.680;23.324;2023-09-30T04:47:04;95691.09;;;15.95;88.54
13027;BME280;6580;42.680;23.324;2023-09-30T04:49:50;95685.53;;;15.74;91.14
13027;BME280;6580;42.680;23.324;2023-09-30T04:52:36;95686.75;;;15.94;89.56
13027;BME280;6580;42.680;23.324;2023-09-30T04:55:23;95690.75;;;15.98;88.74
13027;BME280;6580;42.680;23.324;2023-09-30T04:58:09;95696.22;;;16.05;87.04
13027;BME280;6580;42.680;23.324;2023-09-30T05:00:57;95700.72;;;16.12;86.94
13027;BME280;6580;42.680;23.324;2023-09-30T05:03:42;95694.44;;;16.20;86.30
13027;BME280;6580;42.680;23.324;2023-09-30T05:06:28;95688.16;;;16.27;86.04
13027;BME280;6580;42.680;23.324;2023-09-30T05:09:13;95693.72;;;16.26;85.17
13027;BME280;6580;42.680;23.324;2023-09-30T05:11:59;95684.22;;;16.15;86.35
13027;BME280;6580;42.680;23.324;2023-09-30T05:14:45;95692.66;;;16.34;85.72
13027;BME280;6580;42.680;23.324;2023-09-30T05:17:32;95705.22;;;16.56;84.78
13027;BME280;6580;42.680;23.324;2023-09-30T05:20:19;95699.06;;;16.85;82.23
13027;BME280;6580;42.680;23.324;2023-09-30T05:23:07;95676.69;;;17.13;81.04
13027;BME280;6580;42.680;23.324;2023-09-30T05:25:53;95700.38;;;17.82;76.52
13027;BME280;6580;42.680;23.324;2023-09-30T05:28:40;95691.56;;;18.30;72.66
13027;BME280;6580;42.680;23.324;2023-09-30T05:31:27;95688.50;;;18.87;69.55
13027;BME280;6580;42.680;23.324;2023-09-30T05:34:14;95692.13;;;19.28;67.18
13027;BME280;6580;42.680;23.324;2023-09-30T05:37:04;95694.38;;;19.58;65.46
13027;BME280;6580;42.680;23.324;2023-09-30T05:39:49;95699.63;;;19.33;66.44
13027;BME280;6580;42.680;23.324;2023-09-30T05:42:36;95698.56;;;19.00;67.30
13027;BME280;6580;42.680;23.324;2023-09-30T05:45:23;95719.09;;;18.67;68.52
13027;BME280;6580;42.680;23.324;2023-09-30T05:48:10;95704.81;;;18.45;69.89
13027;BME280;6580;42.680;23.324;2023-09-30T05:50:58;95706.81;;;18.37;71.04
13027;BME280;6580;42.680;23.324;2023-09-30T05:53:45;95712.69;;;18.47;70.36
13027;BME280;6580;42.680;23.324;2023-09-30T05:56:35;95710.31;;;18.38;71.02
13027;BME280;6580;42.680;23.324;2023-09-30T05:59:21;95707.03;;;18.42;70.85
13027;BME280;6580;42.680;23.324;2023-09-30T06:02:09;95714.25;;;18.35;70.75
13027;BME280;6580;42.680;23.324;2023-09-30T06:04:58;95711.59;;;18.41;70.70
13027;BME280;6580;42.680;23.324;2023-09-30T06:07:47;95716.75;;;18.37;71.38
13027;BME280;6580;42.680;23.324;2023-09-30T06:10:32;95720.56;;;18.48;70.48
13027;BME280;6580;42.680;23.324;2023-09-30T06:13:19;95708.44;;;18.38;70.43
13027;BME280;6580;42.680;23.324;2023-09-30T06:16:06;95718.47;;;18.44;70.76
13027;BME280;6580;42.680;23.324;2023-09-30T06:18:55;95720.34;;;18.43;70.36
13027;BME280;6580;42.680;23.324;2023-09-30T06:21:41;95728.09;;;18.74;69.23
13027;BME280;6580;42.680;23.324;2023-09-30T06:24:33;95727.97;;;18.88;68.16
13027;BME280;6580;42.680;23.324;2023-09-30T06:27:23;95722.22;;;18.98;67.18
13027;BME280;6580;42.680;23.324;2023-09-30T06:30:12;95729.56;;;19.04;66.20
13027;BME280;6580;42.680;23.324;2023-09-30T06:33:03;95737.69;;;19.38;64.82
13027;BME280;6580;42.680;23.324;2023-09-30T06:36:08;95736.47;;;19.80;63.03
13027;BME280;6580;42.680;23.324;2023-09-30T06:38:54;95735.88;;;19.85;61.83
13027;BME280;6580;42.680;23.324;2023-09-30T06:41:41;95717.09;;;20.30;60.52
13027;BME280;6580;42.680;23.324;2023-09-30T06:44:27;95724.44;;;20.75;58.26
13027;BME280;6580;42.680;23.324;2023-09-30T06:47:15;95720.28;;;21.18;56.22
13027;BME280;6580;42.680;23.324;2023-09-30T06:50:00;95714.13;;;21.80;55.05
13027;BME280;6580;42.680;23.324;2023-09-30T06:52:53;95723.22;;;22.73;52.21
13027;BME280;6580;42.680;23.324;2023-09-30T06:55:38;95721.75;;;23.26;49.51
13027;BME280;6580;42.680;23.324;2023-09-30T06:58:27;95717.50;;;23.72;48.49
13027;BME280;6580;42.680;23.324;2023-09-30T07:01:17;95708.84;;;24.47;46.54
13027;BME280;6580;42.680;23.324;2023-09-30T07:04:02;95705.47;;;24.16;44.64
13027;BME280;6580;42.680;23.324;2023-09-30T07:06:48;95726.50;;;24.74;45.74
13027;BME280;6580;42.680;23.324;2023-09-30T07:09:33;95724.50;;;25.33;43.98
13027;BME280;6580;42.680;23.324;2023-09-30T07:12:22;95723.88;;;26.00;41.35
13027;BME280;6580;42.680;23.324;2023-09-30T07:15:10;95724.72;;;26.00;40.59
13027;BME280;6580;42.680;23.324;2023-09-30T07:17:55;95724.00;;;25.25;40.13
13027;BME280;6580;42.680;23.324;2023-09-30T07:20:42;95721.13;;;24.67;39.97
13027;BME280;6580;42.680;23.324;2023-09-30T07:23:30;95720.56;;;25.18;39.14
13027;BME280;6580;42.680;23.324;2023-09-30T07:26:23;95727.00;;;24.94;40.61
13027;BME280;6580;42.680;23.324;2023-09-30T07:29:09;95724.81;;;25.14;39.59
13027;BME280;6580;42.680;23.324;2023-09-30T07:31:56;95712.50;;;25.91;38.49
13027;BME280;6580;42.680;23.324;2023-09-30T07:34:42;95720.28;;;26.78;37.48
13027;BME280;6580;42.680;23.324;2023-09-30T07:37:28;95725.78;;;26.50;36.79
13027;BME280;6580;42.680;23.324;2023-09-30T07:40:14;95726.06;;;26.37;36.28
13027;BME280;6580;42.680;23.324;2023-09-30T07:42:59;95709.91;;;27.57;36.05
13027;BME280;6580;42.680;23.324;2023-09-30T07:45:47;95713.63;;;28.43;34.63
13027;BME280;6580;42.680;23.324;2023-09-30T07:48:35;95726.34;;;28.97;33.05
13027;BME280;6580;42.680;23.324;2023-09-30T07:51:22;95712.63;;;29.55;32.88
13027;BME280;6580;42.680;23.324;2023-09-30T07:54:07;95711.53;;;30.43;32.23
13027;BME280;6580;42.680;23.324;2023-09-30T07:56:53;95712.97;;;30.51;30.72
13027;BME280;6580;42.680;23.324;2023-09-30T07:59:40;95716.25;;;29.97;30.57
13027;BME280;6580;42.680;23.324;2023-09-30T08:02:28;95704.09;;;29.93;31.25
13027;BME280;6580;42.680;23.324;2023-09-30T08:05:21;95710.56;;;30.79;30.13
13027;BME280;6580;42.680;23.324;2023-09-30T08:08:12;95702.88;;;30.71;29.54
13027;BME280;6580;42.680;23.324;2023-09-30T08:10:58;95712.44;;;30.59;29.36
13027;BME280;6580;42.680;23.324;2023-09-30T08:13:46;95701.63;;;31.38;28.38
13027;BME280;6580;42.680;23.324;2023-09-30T08:16:33;95711.16;;;30.86;28.60
13027;BME280;6580;42.680;23.324;2023-09-30T08:19:18;95707.13;;;31.48;28.61
13027;BME280;6580;42.680;23.324;2023-09-30T08:22:06;95709.63;;;31.80;27.97
13027;BME280;6580;42.680;23.324;2023-09-30T08:24:53;95707.09;;;32.08;26.98
13027;BME280;6580;42.680;23.324;2023-09-30T08:27:39;95708.06;;;32.57;25.74
13027;BME280;6580;42.680;23.324;2023-09-30T08:30:25;95710.09;;;32.21;25.96
13027;BME280;6580;42.680;23.324;2023-09-30T08:33:11;95709.00;;;32.22;25.99
13027;BME280;6580;42.680;23.324;2023-09-30T08:36:02;95710.16;;;32.02;26.21
13027;BME280;6580;42.680;23.324;2023-09-30T08:38:53;95712.00;;;32.36;25.99
13027;BME280;6580;42.680;23.324;2023-09-30T08:41:39;95701.28;;;33.36;25.04
13027;BME280;6580;42.680;23.324;2023-09-30T08:44:29;95692.69;;;34.04;24.56
13027;BME280;6580;42.680;23.324;2023-09-30T08:47:15;95693.56;;;33.71;23.80
13027;BME280;6580;42.680;23.324;2023-09-30T08:50:03;95696.31;;;32.21;24.38
13027;BME280;6580;42.680;23.324;2023-09-30T08:52:51;95693.88;;;31.95;25.38
13027;BME280;6580;42.680;23.324;2023-09-30T08:55:40;95689.44;;;32.09;25.19
13027;BME280;6580;42.680;23.324;2023-09-30T08:58:27;95688.97;;;32.75;24.25
13027;BME280;6580;42.680;23.324;2023-09-30T09:01:17;95685.56;;;33.36;24.02
13027;BME280;6580;42.680;23.324;2023-09-30T09:04:03;95684.31;;;34.14;22.85
13027;BME280;6580;42.680;23.324;2023-09-30T09:06:49;95671.44;;;34.28;22.66
13027;BME280;6580;42.680;23.324;2023-09-30T09:09:35;95681.13;;;33.69;22.85
13027;BME280;6580;42.680;23.324;2023-09-30T09:12:22;95675.59;;;34.26;22.55
13027;BME280;6580;42.680;23.324;2023-09-30T09:15:19;95670.88;;;33.74;22.27
13027;BME280;6580;42.680;23.324;2023-09-30T09:18:06;95671.78;;;33.31;22.45
13027;BME280;6580;42.680;23.324;2023-09-30T09:21:07;95662.78;;;33.49;22.74
13027;BME280;6580;42.680;23.324;2023-09-30T09:23:54;95666.75;;;32.95;22.72
13027;BME280;6580;42.680;23.324;2023-09-30T09:26:42;95673.44;;;33.32;22.65
13027;BME280;6580;42.680;23.324;2023-09-30T09:29:30;95664.22;;;32.50;22.56
13027;BME280;6580;42.680;23.324;2023-09-30T09:32:17;95669.25;;;32.38;23.07
13027;BME280;6580;42.680;23.324;2023-09-30T09:35:04;95663.28;;;32.12;23.44
13027;BME280;6580;42.680;23.324;2023-09-30T09:37:56;95664.53;;;32.97;22.91
13027;BME280;6580;42.680;23.324;2023-09-30T09:40:43;95654.75;;;34.10;22.19
13027;BME280;6580;42.680;23.324;2023-09-30T09:43:30;95664.53;;;32.97;23.11
13027;BME280;6580;42.680;23.324;2023-09-30T09:46:20;95652.31;;;33.08;22.83
13027;BME280;6580;42.680;23.324;2023-09-30T09:49:07;95656.25;;;33.69;21.99
13027;BME280;6580;42.680;23.324;2023-09-30T09:51:53;95659.75;;;33.08;22.19
13027;BME280;6580;42.680;23.324;2023-09-30T09:54:40;95661.09;;;31.94;23.04
13027;BME280;6580;42.680;23.324;2023-09-30T09:57:30;95647.28;;;32.77;22.92
13027;BME280;6580;42.680;23.324;2023-09-30T10:00:18;95645.16;;;31.56;24.21
13027;BME280;6580;42.680;23.324;2023-09-30T10:03:06;95650.13;;;33.05;22.79
13027;BME280;6580;42.680;23.324;2023-09-30T10:05:54;95646.75;;;32.02;23.41
13027;BME280;6580;42.680;23.324;2023-09-30T10:08:42;95639.13;;;31.64;24.01
13027;BME280;6580;42.680;23.324;2023-09-30T10:11:30;95636.47;;;33.24;22.44
13027;BME280;6580;42.680;23.324;2023-09-30T10:14:30;95641.78;;;31.94;23.86
13027;BME280;6580;42.680;23.324;2023-09-30T10:17:16;95634.34;;;32.72;22.78
13027;BME280;6580;42.680;23.324;2023-09-30T10:20:07;95619.50;;;33.40;22.24
13027;BME280;6580;42.680;23.324;2023-09-30T10:23:23;95612.19;;;33.82;21.84
13027;BME280;6580;42.680;23.324;2023-09-30T10:26:16;95603.81;;;33.64;21.22
13027;BME280;6580;42.680;23.324;2023-09-30T10:29:09;95609.88;;;32.94;21.36
13027;BME280;6580;42.680;23.324;2023-09-30T10:31:54;95615.59;;;32.59;22.51
13027;BME280;6580;42.680;23.324;2023-09-30T10:34:47;95612.00;;;30.36;24.15
13027;BME280;6580;42.680;23.324;2023-09-30T10:37:39;95613.63;;;32.17;22.18
13027;BME280;6580;42.680;23.324;2023-09-30T10:40:26;95602.16;;;31.85;21.86
13027;BME280;6580;42.680;23.324;2023-09-30T10:43:29;95605.16;;;33.00;21.29
13027;BME280;6580;42.680;23.324;2023-09-30T10:46:30;95592.28;;;32.85;21.02
13027;BME280;6580;42.680;23.324;2023-09-30T10:49:34;95583.00;;;32.18;21.43
13027;BME280;6580;42.680;23.324;2023-09-30T10:52:23;95596.13;;;33.56;20.54
13027;BME280;6580;42.680;23.324;2023-09-30T10:55:19;95593.09;;;34.33;20.11
13027;BME280;6580;42.680;23.324;2023-09-30T10:58:04;95592.75;;;34.16;20.11
13027;BME280;6580;42.680;23.324;2023-09-30T11:00:53;95592.88;;;32.77;21.18
13027;BME280;6580;42.680;23.324;2023-09-30T11:03:39;95592.28;;;32.85;20.60
13027;BME280;6580;42.680;23.324;2023-09-30T11:06:25;95589.00;;;31.62;22.10
13027;BME280;6580;42.680;23.324;2023-09-30T11:09:15;95594.84;;;32.23;21.57
13027;BME280;6580;42.680;23.324;2023-09-30T11:12:03;95587.88;;;32.41;21.34
13027;BME280;6580;42.680;23.324;2023-09-30T11:14:59;95578.72;;;31.82;21.80
13027;BME280;6580;42.680;23.324;2023-09-30T11:17:45;95574.94;;;32.80;21.06
13027;BME280;6580;42.680;23.324;2023-09-30T11:20:32;95567.72;;;33.22;20.49
13027;BME280;6580;42.680;23.324;2023-09-30T11:23:18;95570.09;;;33.33;20.47
13027;BME280;6580;42.680;23.324;2023-09-30T11:26:04;95576.75;;;33.61;20.56
13027;BME280;6580;42.680;23.324;2023-09-30T11:28:51;95569.00;;;32.96;21.00
13027;BME280;6580;42.680;23.324;2023-09-30T11:31:39;95571.72;;;32.10;21.46
13027;BME280;6580;42.680;23.324;2023-09-30T11:34:31;95571.22;;;32.94;21.27
13027;BME280;6580;42.680;23.324;2023-09-30T11:37:21;95545.44;;;33.14;20.54
13027;BME280;6580;42.680;23.324;2023-09-30T11:40:12;95538.72;;;32.48;21.51
13027;BME280;6580;42.680;23.324;2023-09-30T11:43:08;95561.25;;;32.07;22.32
13027;BME280;6580;42.680;23.324;2023-09-30T11:46:07;95562.66;;;33.01;21.59
13027;BME280;6580;42.680;23.324;2023-09-30T11:48:59;95566.28;;;31.95;21.73
13027;BME280;6580;42.680;23.324;2023-09-30T11:51:50;95550.81;;;33.28;21.08
13027;BME280;6580;42.680;23.324;2023-09-30T11:54:38;95547.94;;;33.67;20.63
13027;BME280;6580;42.680;23.324;2023-09-30T11:57:25;95537.53;;;32.97;20.98
13027;BME280;6580;42.680;23.324;2023-09-30T12:00:11;95537.78;;;33.34;21.42
13027;BME280;6580;42.680;23.324;2023-09-30T12:03:06;95540.88;;;33.28;20.97
13027;BME280;6580;42.680;23.324;2023-09-30T12:05:51;95539.28;;;32.88;21.18
13027;BME280;6580;42.680;23.324;2023-09-30T12:08:39;95526.19;;;32.60;22.30
13027;BME280;6580;42.680;23.324;2023-09-30T12:11:25;95524.81;;;33.01;22.04
13027;BME280;6580;42.680;23.324;2023-09-30T12:14:13;95529.84;;;33.51;21.09
13027;BME280;6580;42.680;23.324;2023-09-30T12:16:59;95517.06;;;33.03;21.69
13027;BME280;6580;42.680;23.324;2023-09-30T12:19:46;95513.94;;;33.90;21.00
13027;BME280;6580;42.680;23.324;2023-09-30T12:22:35;95510.75;;;32.98;21.38
13027;BME280;6580;42.680;23.324;2023-09-30T12:25:21;95503.47;;;33.40;20.46
13027;BME280;6580;42.680;23.324;2023-09-30T12:28:08;95511.41;;;33.18;20.73
13027;BME280;6580;42.680;23.324;2023-09-30T12:30:54;95511.16;;;32.81;21.21
13027;BME280;6580;42.680;23.324;2023-09-30T12:33:39;95500.81;;;32.25;21.63
13027;BME280;6580;42.680;23.324;2023-09-30T12:36:27;95502.63;;;32.39;21.81
13027;BME280;6580;42.680;23.324;2023-09-30T12:39:14;95512.09;;;31.65;22.24
13027;BME280;6580;42.680;23.324;2023-09-30T12:42:09;95496.06;;;32.35;21.90
13027;BME280;6580;42.680;23.324;2023-09-30T12:44:56;95503.88;;;32.57;21.17
13027;BME280;6580;42.680;23.324;2023-09-30T12:47:41;95500.91;;;32.05;21.77
13027;BME280;6580;42.680;23.324;2023-09-30T12:50:27;95508.53;;;31.65;21.93
13027;BME280;6580;42.680;23.324;2023-09-30T12:53:14;95507.19;;;31.47;22.43
13027;BME280;6580;42.680;23.324;2023-09-30T12:56:02;95494.78;;;31.65;22.51
13027;BME280;6580;42.680;23.324;2023-09-30T12:58:48;95472.91;;;30.55;23.23
13027;BME280;6580;42.680;23.324;2023-09-30T13:01:36;95503.66;;;29.51;24.40
13027;BME280;6580;42.680;23.324;2023-09-30T13:04:23;95478.41;;;29.03;24.52
13027;BME280;6580;42.680;23.324;2023-09-30T13:07:10;95490.56;;;28.81;25.40
13027;BME280;6580;42.680;23.324;2023-09-30T13:09:58;95478.41;;;28.72;26.03
13027;BME280;6580;42.680;23.324;2023-09-30T13:12:44;95486.16;;;28.43;25.74
13027;BME280;6580;42.680;23.324;2023-09-30T13:15:34;95485.00;;;28.34;26.26
13027;BME280;6580;42.680;23.324;2023-09-30T13:18:23;95485.22;;;28.28;26.23
13027;BME280;6580;42.680;23.324;2023-09-30T13:21:11;95485.38;;;27.95;26.91
13027;BME280;6580;42.680;23.324;2023-09-30T13:23:57;95487.59;;;27.72;27.35
13027;BME280;6580;42.680;23.324;2023-09-30T13:26:45;95488.16;;;27.52;27.92
13027;BME280;6580;42.680;23.324;2023-09-30T13:29:30;95484.41;;;27.15;28.29
13027;BME280;6580;42.680;23.324;2023-09-30T13:32:16;95477.53;;;27.13;28.35
13027;BME280;6580;42.680;23.324;2023-09-30T13:35:04;95475.94;;;27.60;28.32
13027;BME280;6580;42.680;23.324;2023-09-30T13:37:51;95477.59;;;27.39;27.81
13027;BME280;6580;42.680;23.324;2023-09-30T13:40:38;95481.59;;;27.32;28.34
13027;BME280;6580;42.680;23.324;2023-09-30T13:43:25;95480.78;;;27.10;28.13
13027;BME280;6580;42.680;23.324;2023-09-30T13:46:12;95465.84;;;27.01;28.35
13027;BME280;6580;42.680;23.324;2023-09-30T13:49:00;95477.00;;;26.78;28.36
13027;BME280;6580;42.680;23.324;2023-09-30T13:51:46;95464.94;;;26.25;28.25
13027;BME280;6580;42.680;23.324;2023-09-30T13:54:36;95467.09;;;26.56;28.58
13027;BME280;6580;42.680;23.324;2023-09-30T13:57:26;95460.59;;;26.78;28.27
13027;BME280;6580;42.680;23.324;2023-09-30T14:00:14;95462.72;;;26.55;28.72
13027;BME280;6580;42.680;23.324;2023-09-30T14:03:00;95461.03;;;26.70;28.35
13027;BME280;6580;42.680;23.324;2023-09-30T14:05:47;95461.91;;;26.92;28.25
13027;BME280;6580;42.680;23.324;2023-09-30T14:08:33;95466.44;;;26.65;28.78
13027;BME280;6580;42.680;23.324;2023-09-30T14:11:19;95461.63;;;26.72;28.76
13027;BME280;6580;42.680;23.324;2023-09-30T14:14:05;95455.19;;;26.62;29.04
13027;BME280;6580;42.680;23.324;2023-09-30T14:16:57;95461.72;;;26.44;29.18
13027;BME280;6580;42.680;23.324;2023-09-30T14:19:43;95452.94;;;26.42;28.81
13027;BME280;6580;42.680;23.324;2023-09-30T14:22:29;95451.78;;;26.38;29.29
13027;BME280;6580;42.680;23.324;2023-09-30T14:25:15;95454.75;;;26.37;29.21
13027;BME280;6580;42.680;23.324;2023-09-30T14:28:01;95455.19;;;26.29;29.79
13027;BME280;6580;42.680;23.324;2023-09-30T14:30:48;95455.41;;;25.94;29.38
13027;BME280;6580;42.680;23.324;2023-09-30T14:33:35;95456.97;;;25.90;30.07
13027;BME280;6580;42.680;23.324;2023-09-30T14:36:21;95457.66;;;25.97;29.75
13027;BME280;6580;42.680;23.324;2023-09-30T14:39:07;95460.28;;;25.92;29.87
13027;BME280;6580;42.680;23.324;2023-09-30T14:41:54;95461.59;;;26.06;29.98
13027;BME280;6580;42.680;23.324;2023-09-30T14:44:42;95462.94;;;26.04;29.58
13027;BME280;6580;42.680;23.324;2023-09-30T14:47:28;95456.97;;;25.90;30.24